Nashville, Tennessee
Traffic Map
Current Weather Conditions
Nashville, Tennessee
Few Clouds
Few Clouds

Feels Like: 9°
Wind Chill: Ceiling: Unl
Heat Index: Visibility: 9mi
Dew Point: Wind: 3mph
Humidity: 93% Direction: 190° (S)
Pressure: 30.09in Gusts: 0mph
Raw Report DataKBNA 250653Z 19003KT 9SM FEW250 09/08 A3009 RMK AO2 SLP187 T00890078
Traffic Incident Summary
Active as of:
Severity:
Category:
InformationThere was an issue retrieving the traffic information for this location. Please try a different location or try again shortly.
Advertisements
Track Severe Weather on mobile